Time;durP1;ratioP1;P1;durP2;ratioP2;P2;SDS_P1;SDS_P2;PMS_P1;PMS_P2;Temp;Humidity;BMP_temperature;BMP_pressure;BME280_temperature;BME280_humidity;BME280_pressure;Samples;Min_cycle;Max_cycle;Signal;HPM_P1;HPM_P2
2022/09/14 00:01:26;;;;;;;0.00;0.00;;;14.90;99.90;;;;;;4987266;28;20459;-71
2022/09/14 00:03:56;;;;;;;0.00;0.00;;;14.90;99.90;;;;;;4980583;28;21099;-72
2022/09/14 00:06:24;;;;;;;0.00;0.00;;;14.90;99.90;;;;;;4980460;28;20439;-71
2022/09/14 00:08:55;;;;;;;0.00;0.00;;;14.90;99.90;;;;;;4980228;28;20447;-72
2022/09/14 00:11:24;;;;;;;0.00;0.00;;;14.90;99.90;;;;;;4980345;28;20491;-72
2022/09/14 00:13:53;;;;;;;0.00;0.00;;;14.90;99.90;;;;;;4980393;28;20816;-72
2022/09/14 00:16:23;;;;;;;0.00;0.00;;;14.80;99.90;;;;;;4980474;28;20438;-72
2022/09/14 00:18:51;;;;;;;0.00;0.00;;;14.70;99.90;;;;;;4980154;28;20475;-72
2022/09/14 00:21:20;;;;;;;0.00;0.00;;;14.70;99.90;;;;;;4980663;28;20431;-72
2022/09/14 00:23:48;;;;;;;0.00;0.00;;;14.70;99.90;;;;;;4980309;28;21021;-72
2022/09/14 00:26:19;;;;;;;0.00;0.00;;;14.70;99.90;;;;;;4979633;28;20447;-71
2022/09/14 00:28:49;;;;;;;0.00;0.00;;;14.70;99.90;;;;;;4980728;28;20435;-71
2022/09/14 00:31:17;;;;;;;0.00;0.00;;;14.70;99.90;;;;;;4981501;28;21162;-71
2022/09/14 00:33:47;;;;;;;0.00;0.00;;;14.70;99.90;;;;;;4981040;28;20649;-71
2022/09/14 00:36:16;;;;;;;0.00;0.00;;;14.70;99.90;;;;;;4980535;28;20890;-71
2022/09/14 00:38:46;;;;;;;0.00;0.00;;;14.70;99.90;;;;;;4979496;28;21258;-72
2022/09/14 00:41:19;;;;;;;0.00;0.00;;;14.60;99.90;;;;;;4980529;28;20447;-72
2022/09/14 00:43:55;;;;;;;0.00;0.00;;;14.60;99.90;;;;;;4981734;28;20557;-71
2022/09/14 00:46:25;;;;;;;0.00;0.00;;;14.50;99.90;;;;;;4980241;28;20441;-72
2022/09/14 00:48:53;;;;;;;0.00;0.00;;;14.50;99.90;;;;;;4979444;28;20855;-72
2022/09/14 00:51:22;;;;;;;0.00;0.00;;;14.50;99.90;;;;;;4979159;28;20463;-73
2022/09/14 00:53:50;;;;;;;0.00;0.00;;;14.50;99.90;;;;;;4979858;28;21110;-73
2022/09/14 00:56:19;;;;;;;0.00;0.00;;;14.50;99.90;;;;;;4979938;28;20431;-72
2022/09/14 00:58:50;;;;;;;0.00;0.00;;;14.50;99.90;;;;;;4979073;28;20517;-72
2022/09/14 01:01:18;;;;;;;0.00;0.00;;;14.40;99.90;;;;;;4979567;28;20455;-72
2022/09/14 01:03:46;;;;;;;0.00;0.00;;;14.40;99.90;;;;;;4979439;28;21131;-72
2022/09/14 01:06:22;;;;;;;0.00;0.00;;;14.40;99.90;;;;;;4979780;28;20447;-72
2022/09/14 01:09:05;;;;;;;0.00;0.00;;;14.40;99.90;;;;;;4979048;28;20474;-72
2022/09/14 01:11:57;;;;;;;0.00;0.00;;;14.40;99.90;;;;;;4979719;28;20509;-72
2022/09/14 01:14:35;;;;;;;0.00;0.00;;;14.30;99.90;;;;;;4980125;28;20439;-72
2022/09/14 01:17:10;;;;;;;0.00;0.00;;;14.30;99.90;;;;;;4979754;28;20476;-71
2022/09/14 01:19:59;;;;;;;0.00;0.00;;;14.20;99.90;;;;;;4979100;28;20462;-72
2022/09/14 01:22:35;;;;;;;0.00;0.00;;;14.20;99.90;;;;;;4979429;28;21177;-73
2022/09/14 01:25:18;;;;;;;0.00;0.00;;;14.20;99.90;;;;;;4979469;28;21155;-74
2022/09/14 01:27:50;;;;;;;0.00;0.00;;;14.10;99.90;;;;;;4979416;28;20842;-74
2022/09/14 01:30:21;;;;;;;0.00;0.00;;;14.10;99.90;;;;;;4978760;28;20450;-75
2022/09/14 01:32:53;;;;;;;0.00;0.00;;;14.10;99.90;;;;;;4979112;28;20647;-75
2022/09/14 01:35:26;;;;;;;0.00;0.00;;;14.00;99.90;;;;;;4979150;28;20517;-75
2022/09/14 01:37:59;;;;;;;0.00;0.00;;;14.00;99.90;;;;;;4982186;28;20553;-74
2022/09/14 01:40:31;;;;;;;0.00;0.00;;;14.00;99.90;;;;;;4982693;28;21028;-73
2022/09/14 01:43:05;;;;;;;0.00;0.00;;;14.00;99.90;;;;;;4983206;28;21013;-75
2022/09/14 01:45:37;;;;;;;0.00;0.00;;;13.90;99.90;;;;;;4983069;28;20450;-75
2022/09/14 01:48:07;;;;;;;0.00;0.00;;;13.90;99.90;;;;;;4983158;28;20434;-75
2022/09/14 01:50:41;;;;;;;0.00;0.00;;;13.90;99.90;;;;;;4983009;28;20463;-73
2022/09/14 01:53:12;;;;;;;0.00;0.00;;;13.90;99.90;;;;;;4982892;28;20431;-74
2022/09/14 01:55:44;;;;;;;0.00;0.00;;;13.80;99.90;;;;;;4982582;28;21126;-73
2022/09/14 01:58:18;;;;;;;0.00;0.00;;;13.80;99.90;;;;;;4983047;28;20483;-74
2022/09/14 02:00:47;;;;;;;0.00;0.00;;;13.80;99.90;;;;;;4982558;28;20474;-74
2022/09/14 02:03:19;;;;;;;0.00;0.00;;;13.80;99.90;;;;;;4982668;28;20985;-74
2022/09/14 02:05:52;;;;;;;0.00;0.00;;;13.80;99.90;;;;;;4982665;28;20513;-74
2022/09/14 02:08:20;;;;;;;0.00;0.00;;;13.90;99.90;;;;;;4982570;28;21148;-75
2022/09/14 02:10:48;;;;;;;0.00;0.00;;;13.90;99.90;;;;;;4982488;28;20544;-73
2022/09/14 02:13:17;;;;;;;0.00;0.00;;;13.90;99.90;;;;;;4982254;28;20446;-73
2022/09/14 02:22:08;;;;;;;0.00;0.00;;;13.90;99.90;;;;;;4971346;28;20628;-87
2022/09/14 02:24:36;;;;;;;0.00;0.00;;;13.90;99.90;;;;;;4970621;28;20437;-87
2022/09/14 02:27:06;;;;;;;0.00;0.00;;;13.80;99.90;;;;;;4970370;28;20671;-88
2022/09/14 02:29:36;;;;;;;0.00;0.00;;;13.80;99.90;;;;;;4971054;28;20444;-87
2022/09/14 02:32:15;;;;;;;0.00;0.00;;;13.80;99.90;;;;;;4970964;28;20476;-87
2022/09/14 02:34:53;;;;;;;0.00;0.00;;;13.80;99.90;;;;;;4971464;28;20515;-88
2022/09/14 02:37:29;;;;;;;0.00;0.00;;;13.80;99.90;;;;;;4971222;28;20500;-87
2022/09/14 02:40:05;;;;;;;0.00;0.00;;;13.80;99.90;;;;;;4969773;28;20522;-85
2022/09/14 02:42:40;;;;;;;0.00;0.00;;;13.80;99.90;;;;;;4969780;28;20459;-86
2022/09/14 02:45:16;;;;;;;0.00;0.00;;;13.80;99.90;;;;;;4969090;28;20643;-85
2022/09/14 02:47:54;;;;;;;0.00;0.00;;;13.80;99.90;;;;;;4968927;28;20441;-86
2022/09/14 02:50:28;;;;;;;0.00;0.00;;;13.70;99.90;;;;;;4965017;28;20457;-86
2022/09/14 02:53:01;;;;;;;0.00;0.00;;;13.70;99.90;;;;;;4963821;28;20700;-86
2022/09/14 02:55:35;;;;;;;0.00;0.00;;;13.70;99.90;;;;;;4954679;28;20448;-86
2022/09/14 02:58:05;;;;;;;0.00;0.00;;;13.70;99.90;;;;;;4951582;28;20950;-85
2022/09/14 03:00:37;;;;;;;0.00;0.00;;;13.70;99.90;;;;;;4957342;28;20463;-87
2022/09/14 03:03:06;;;;;;;0.00;0.00;;;13.70;99.90;;;;;;4970700;28;20456;-88
2022/09/14 03:05:34;;;;;;;0.00;0.00;;;13.70;99.90;;;;;;4970231;28;20459;-87
2022/09/14 03:08:03;;;;;;;0.00;0.00;;;13.60;99.90;;;;;;4954864;28;20484;-87
2022/09/14 03:10:31;;;;;;;0.00;0.00;;;13.70;99.90;;;;;;4951987;28;20842;-87
2022/09/14 03:13:00;;;;;;;0.00;0.00;;;13.70;99.90;;;;;;4954056;28;20461;-87
2022/09/14 03:15:29;;;;;;;0.00;0.00;;;13.70;99.90;;;;;;4955641;28;20468;-88
2022/09/14 03:17:58;;;;;;;0.00;0.00;;;13.70;99.90;;;;;;4961999;28;20433;-87
2022/09/14 03:20:27;;;;;;;0.00;0.00;;;13.70;99.90;;;;;;4964127;28;20821;-86
2022/09/14 03:22:57;;;;;;;0.00;0.00;;;13.70;99.90;;;;;;4954967;28;20474;-87
2022/09/14 03:25:26;;;;;;;0.00;0.00;;;13.70;99.90;;;;;;4953320;28;20441;-86
2022/09/14 03:27:56;;;;;;;0.00;0.00;;;13.60;99.90;;;;;;4952887;28;20456;-86
2022/09/14 03:30:24;;;;;;;0.00;0.00;;;13.60;99.90;;;;;;4952369;28;20586;-86
2022/09/14 03:32:52;;;;;;;0.00;0.00;;;13.50;99.90;;;;;;4952698;28;20465;-86
2022/09/14 03:35:21;;;;;;;0.00;0.00;;;13.50;99.90;;;;;;4953193;28;20464;-86
2022/09/14 03:37:49;;;;;;;0.00;0.00;;;13.60;99.90;;;;;;4952588;28;20452;-86
2022/09/14 03:40:18;;;;;;;0.00;0.00;;;13.50;99.90;;;;;;4951830;28;20492;-85
2022/09/14 03:42:51;;;;;;;0.00;0.00;;;13.50;99.90;;;;;;4952449;28;20444;-85
2022/09/14 03:45:20;;;;;;;0.00;0.00;;;13.50;99.90;;;;;;4951942;28;20461;-86
2022/09/14 03:47:48;;;;;;;0.00;0.00;;;13.50;99.90;;;;;;4950804;28;20483;-85
2022/09/14 03:50:18;;;;;;;0.00;0.00;;;13.50;99.90;;;;;;4951726;28;20473;-85
2022/09/14 03:52:48;;;;;;;0.00;0.00;;;13.50;99.90;;;;;;4951713;28;20521;-85
2022/09/14 03:55:18;;;;;;;0.00;0.00;;;13.40;99.90;;;;;;4953373;28;20453;-85
2022/09/14 03:57:45;;;;;;;0.00;0.00;;;13.40;99.90;;;;;;4954868;28;20483;-86
2022/09/14 04:00:14;;;;;;;0.00;0.00;;;13.40;99.90;;;;;;4953181;28;20484;-86
2022/09/14 04:02:42;;;;;;;0.00;0.00;;;13.40;99.90;;;;;;4952109;29;20453;-86
2022/09/14 04:05:10;;;;;;;0.00;0.00;;;13.40;99.90;;;;;;4939448;29;20728;-86
2022/09/14 04:07:38;;;;;;;0.00;0.00;;;13.30;99.90;;;;;;4932254;29;20461;-86
2022/09/14 04:10:08;;;;;;;0.00;0.00;;;13.30;99.90;;;;;;4932245;29;20517;-86
2022/09/14 04:12:40;;;;;;;0.00;0.00;;;13.30;99.90;;;;;;4931378;28;20480;-89
2022/09/14 04:15:08;;;;;;;0.00;0.00;;;13.30;99.90;;;;;;4929662;29;20449;-89
2022/09/14 04:17:36;;;;;;;0.00;0.00;;;13.30;99.90;;;;;;4929104;29;20461;-87
2022/09/14 04:20:08;;;;;;;0.00;0.00;;;13.30;99.90;;;;;;4941938;28;20555;-90
2022/09/14 04:22:36;;;;;;;0.00;0.00;;;13.30;99.90;;;;;;4941423;28;20544;-88
2022/09/14 04:25:07;;;;;;;0.00;0.00;;;13.40;99.90;;;;;;4929913;29;20457;-89
2022/09/14 04:27:35;;;;;;;0.00;0.00;;;13.50;99.90;;;;;;4928190;29;20453;-89
2022/09/14 04:30:04;;;;;;;0.00;0.00;;;13.50;99.90;;;;;;4928735;29;20469;-89
2022/09/14 04:32:32;;;;;;;0.00;0.00;;;13.60;99.90;;;;;;4928960;28;20484;-90
2022/09/14 04:35:01;;;;;;;0.00;0.00;;;13.70;99.90;;;;;;4929871;29;20458;-89
2022/09/14 04:37:35;;;;;;;0.00;0.00;;;13.70;99.90;;;;;;4929840;29;20751;-91
2022/09/14 04:40:24;;;;;;;0.00;0.00;;;13.80;99.90;;;;;;4938017;29;20481;-91
2022/09/14 04:42:52;;;;;;;0.00;0.00;;;13.90;99.90;;;;;;4887943;29;20898;-89
2022/09/14 04:45:20;;;;;;;0.00;0.00;;;14.00;99.90;;;;;;4887692;29;20475;-89
2022/09/14 04:47:49;;;;;;;0.00;0.00;;;14.20;99.90;;;;;;4887919;29;20515;-89
2022/09/14 04:50:17;;;;;;;0.00;0.00;;;14.30;99.90;;;;;;4887238;29;20837;-89
2022/09/14 04:52:45;;;;;;;0.00;0.00;;;14.30;99.90;;;;;;4887636;29;20439;-89
2022/09/14 04:55:13;;;;;;;0.00;0.00;;;14.40;99.90;;;;;;4887446;29;20534;-88
2022/09/14 04:57:57;;;;;;;0.00;0.00;;;14.50;99.90;;;;;;4888790;29;20519;-86
2022/09/14 05:00:28;;;;;;;0.00;0.00;;;14.60;99.90;;;;;;4887428;29;20505;-88
2022/09/14 05:03:10;;;;;;;0.00;0.00;;;14.70;99.90;;;;;;4905714;29;20735;-88
2022/09/14 05:05:38;;;;;;;0.00;0.00;;;14.80;99.90;;;;;;4928769;29;20783;-87
2022/09/14 05:08:11;;;;;;;0.00;0.00;;;14.90;99.90;;;;;;4928941;29;20715;-88
2022/09/14 05:10:39;;;;;;;0.00;0.00;;;14.90;99.90;;;;;;4927874;28;20500;-90
2022/09/14 05:13:09;;;;;;;0.00;0.00;;;15.00;99.90;;;;;;4927613;29;20468;-89
2022/09/14 05:15:36;;;;;;;0.00;0.00;;;15.10;99.90;;;;;;4929730;29;20472;-87
2022/09/14 05:18:10;;;;;;;0.00;0.00;;;15.10;99.90;;;;;;4929111;29;20457;-88
2022/09/14 05:20:41;;;;;;;0.00;0.00;;;15.10;99.90;;;;;;4934986;28;20493;-87
2022/09/14 05:23:09;;;;;;;0.00;0.00;;;15.20;99.90;;;;;;4945045;29;20462;-86
2022/09/14 05:25:37;;;;;;;0.00;0.00;;;15.20;99.90;;;;;;4930824;29;20552;-87
2022/09/14 05:28:05;;;;;;;0.00;0.00;;;15.20;99.90;;;;;;4932142;29;20902;-91
2022/09/14 05:30:39;;;;;;;0.00;0.00;;;15.20;99.90;;;;;;4930109;29;20482;-89
2022/09/14 05:33:07;;;;;;;0.00;0.00;;;15.20;99.90;;;;;;4929459;28;20499;-89
2022/09/14 05:35:35;;;;;;;0.00;0.00;;;15.30;99.90;;;;;;4933122;29;20480;-89
2022/09/14 05:38:03;;;;;;;0.00;0.00;;;15.40;99.90;;;;;;4947037;28;20457;-89
2022/09/14 05:40:34;;;;;;;0.00;0.00;;;15.50;99.90;;;;;;4946747;29;20988;-88
2022/09/14 05:43:02;;;;;;;0.00;0.00;;;15.60;99.90;;;;;;4947002;28;20637;-85
2022/09/14 05:45:30;;;;;;;0.00;0.00;;;15.60;99.90;;;;;;4947827;29;20467;-87
2022/09/14 05:48:03;;;;;;;0.00;0.00;;;15.60;99.90;;;;;;4947637;29;20491;-85
2022/09/14 05:50:31;;;;;;;0.00;0.00;;;15.60;99.90;;;;;;4947490;28;20864;-84
2022/09/14 05:52:59;;;;;;;0.00;0.00;;;15.60;99.90;;;;;;4945798;28;20881;-84
2022/09/14 05:55:27;;;;;;;0.00;0.00;;;15.60;99.90;;;;;;4952570;29;20445;-85
2022/09/14 05:57:55;;;;;;;0.00;0.00;;;15.60;99.90;;;;;;4944142;28;20449;-84
2022/09/14 06:00:23;;;;;;;0.00;0.00;;;15.60;99.90;;;;;;4946568;28;20492;-84
2022/09/14 06:02:53;;;;;;;0.00;0.00;;;15.60;99.90;;;;;;4947627;29;20987;-85
2022/09/14 06:05:24;;;;;;;0.00;0.00;;;15.70;99.90;;;;;;4948230;29;20993;-85
2022/09/14 06:07:54;;;;;;;0.00;0.00;;;15.80;99.90;;;;;;4948224;29;20441;-84
2022/09/14 06:10:22;;;;;;;0.00;0.00;;;15.80;99.90;;;;;;4945261;28;20987;-84
2022/09/14 06:12:50;;;;;;;0.00;0.00;;;15.90;99.90;;;;;;4934958;29;20493;-84
2022/09/14 06:15:23;;;;;;;0.00;0.00;;;16.00;99.90;;;;;;4946773;29;20974;-84
2022/09/14 06:17:51;;;;;;;0.00;0.00;;;16.10;99.90;;;;;;4947248;29;20536;-84
2022/09/14 06:20:19;;;;;;;0.00;0.00;;;16.20;99.90;;;;;;4948437;29;20484;-85
2022/09/14 06:22:50;;;;;;;0.00;0.00;;;16.20;99.90;;;;;;4949755;28;21076;-85
2022/09/14 06:25:18;;;;;;;0.00;0.00;;;16.30;99.90;;;;;;4969080;28;20488;-85
2022/09/14 06:27:46;;;;;;;0.00;0.00;;;16.40;99.90;;;;;;4951947;29;20449;-83
2022/09/14 06:30:15;;;;;;;0.00;0.00;;;16.50;99.90;;;;;;4944743;28;20477;-85
2022/09/14 06:32:43;;;;;;;0.00;0.00;;;16.60;99.90;;;;;;4950131;29;20458;-85
2022/09/14 06:35:11;;;;;;;0.00;0.00;;;16.60;99.90;;;;;;4952214;28;20484;-84
2022/09/14 06:37:39;;;;;;;0.00;0.00;;;16.60;99.90;;;;;;4953032;29;20417;-85
2022/09/14 06:40:09;;;;;;;0.00;0.00;;;16.60;99.90;;;;;;4952562;29;20520;-84
2022/09/14 06:42:37;;;;;;;0.00;0.00;;;16.70;99.90;;;;;;4952433;29;20449;-84
2022/09/14 06:45:07;;;;;;;0.00;0.00;;;16.80;99.90;;;;;;4941155;29;20485;-85
2022/09/14 06:47:35;;;;;;;0.00;0.00;;;16.80;99.90;;;;;;4949631;28;20473;-84
2022/09/14 06:50:04;;;;;;;0.00;0.00;;;16.80;99.90;;;;;;4936576;29;20474;-85
2022/09/14 06:52:33;;;;;;;0.00;0.00;;;16.80;99.90;;;;;;4938870;29;20481;-85
2022/09/14 06:55:00;;;;;;;0.00;0.00;;;16.80;99.90;;;;;;4933658;29;20455;-85
2022/09/14 06:57:30;;;;;;;0.00;0.00;;;16.80;99.90;;;;;;4932957;29;20455;-86
2022/09/14 06:59:57;;;;;;;0.00;0.00;;;16.80;99.90;;;;;;4934350;29;22106;-86
2022/09/14 07:02:27;;;;;;;0.00;0.00;;;16.80;99.90;;;;;;4933140;29;20556;-86
2022/09/14 07:04:55;;;;;;;0.00;0.00;;;16.80;99.90;;;;;;4940299;29;20458;-83
2022/09/14 07:07:23;;;;;;;0.00;0.00;;;16.70;99.90;;;;;;4931021;29;20467;-85
2022/09/14 07:09:51;;;;;;;0.00;0.00;;;16.70;99.90;;;;;;4931509;29;20458;-86
2022/09/14 07:12:19;;;;;;;0.00;0.00;;;16.70;99.90;;;;;;4936594;29;20446;-86
2022/09/14 07:14:48;;;;;;;0.00;0.00;;;16.60;99.90;;;;;;4936710;28;20920;-86
2022/09/14 07:17:17;;;;;;;0.00;0.00;;;16.60;99.90;;;;;;4944839;29;20457;-85
2022/09/14 07:19:46;;;;;;;0.00;0.00;;;16.60;99.90;;;;;;4956956;29;20447;-86
2022/09/14 07:22:14;;;;;;;0.00;0.00;;;16.60;99.90;;;;;;4951837;29;20512;-87
2022/09/14 07:24:44;;;;;;;0.00;0.00;;;16.60;99.90;;;;;;4953239;29;20463;-86
2022/09/14 07:27:12;;;;;;;0.00;0.00;;;16.70;99.90;;;;;;4973127;28;20469;-88
2022/09/14 07:29:40;;;;;;;0.00;0.00;;;16.80;99.90;;;;;;4939746;28;20476;-86
2022/09/14 07:32:19;;;;;;;0.00;0.00;;;16.90;99.90;;;;;;4933852;29;20454;-89
2022/09/14 07:34:48;;;;;;;0.00;0.00;;;16.90;99.90;;;;;;4931351;29;20458;-85
2022/09/14 07:37:17;;;;;;;0.00;0.00;;;17.00;99.90;;;;;;4944017;29;20448;-84
2022/09/14 07:39:47;;;;;;;0.00;0.00;;;17.00;99.90;;;;;;4953388;28;20553;-86
2022/09/14 07:42:17;;;;;;;0.00;0.00;;;17.10;99.90;;;;;;4930161;29;20480;-85
2022/09/14 07:44:45;;;;;;;0.00;0.00;;;17.10;99.90;;;;;;4936163;29;20465;-85
2022/09/14 07:47:31;;;;;;;0.00;0.00;;;17.20;99.90;;;;;;4935187;29;20519;-85
2022/09/14 07:50:08;;;;;;;0.00;0.00;;;17.30;99.90;;;;;;4931971;29;20479;-85
2022/09/14 07:52:40;;;;;;;0.00;0.00;;;17.30;99.90;;;;;;4935733;28;20497;-86
2022/09/14 07:55:11;;;;;;;0.00;0.00;;;17.30;99.90;;;;;;4934997;29;20434;-86
2022/09/14 07:57:45;;;;;;;0.00;0.00;;;17.40;99.90;;;;;;4937518;29;20502;-88
2022/09/14 08:00:24;;;;;;;0.00;0.00;;;17.40;99.90;;;;;;4936531;29;20461;-85
2022/09/14 08:02:58;;;;;;;0.00;0.00;;;17.50;99.90;;;;;;4932049;29;21074;-86
2022/09/14 08:05:35;;;;;;;0.00;0.00;;;17.60;99.90;;;;;;4934820;28;21000;-88
2022/09/14 08:08:05;;;;;;;0.00;0.00;;;17.70;99.90;;;;;;4928778;29;20886;-87
2022/09/14 08:10:35;;;;;;;0.00;0.00;;;17.70;99.90;;;;;;4928323;29;20526;-86
2022/09/14 08:13:03;;;;;;;0.00;0.00;;;17.90;99.90;;;;;;4930216;29;20440;-87
2022/09/14 08:15:33;;;;;;;0.00;0.00;;;17.90;99.90;;;;;;4927278;29;21059;-85
2022/09/14 08:18:06;;;;;;;0.00;0.00;;;18.10;99.90;;;;;;4928005;29;20438;-88
2022/09/14 08:20:36;;;;;;;0.00;0.00;;;18.20;99.90;;;;;;4929324;28;20730;-86
2022/09/14 08:23:07;;;;;;;0.00;0.00;;;18.30;99.90;;;;;;4930279;29;21026;-87
2022/09/14 08:25:38;;;;;;;0.00;0.00;;;18.40;99.90;;;;;;4941423;28;20523;-85
2022/09/14 08:28:07;;;;;;;0.00;0.00;;;18.50;99.90;;;;;;4961648;28;20437;-87
2022/09/14 08:30:35;;;;;;;0.00;0.00;;;18.70;99.90;;;;;;4956059;28;20476;-87
2022/09/14 08:33:07;;;;;;;0.00;0.00;;;18.90;99.90;;;;;;4948378;29;20801;-86
2022/09/14 08:35:42;;;;;;;0.00;0.00;;;19.10;99.90;;;;;;4947064;28;20436;-86
2022/09/14 08:38:27;;;;;;;0.00;0.00;;;19.20;99.90;;;;;;4946856;28;20616;-87
2022/09/14 08:40:56;;;;;;;0.00;0.00;;;19.30;99.90;;;;;;4946986;29;20479;-86
2022/09/14 08:43:27;;;;;;;0.00;0.00;;;19.20;99.90;;;;;;4948252;28;20590;-86
2022/09/14 08:46:01;;;;;;;0.00;0.00;;;19.30;99.90;;;;;;4948604;28;20461;-86
2022/09/14 08:48:37;;;;;;;0.00;0.00;;;19.40;99.90;;;;;;4949067;29;20523;-87
2022/09/14 08:51:08;;;;;;;0.00;0.00;;;19.50;99.90;;;;;;4947866;28;21070;-87
2022/09/14 08:53:40;;;;;;;0.00;0.00;;;19.60;99.90;;;;;;4945966;29;20948;-87
2022/09/14 08:56:13;;;;;;;0.00;0.00;;;19.80;99.90;;;;;;4947687;28;20496;-85
2022/09/14 08:58:52;;;;;;;0.00;0.00;;;19.90;99.90;;;;;;4949723;29;20530;-86
2022/09/14 09:01:28;;;;;;;0.00;0.00;;;19.90;99.90;;;;;;4948503;29;20699;-86
2022/09/14 09:04:19;;;;;;;0.00;0.00;;;19.90;99.90;;;;;;4950426;29;20484;-87
2022/09/14 09:06:57;;;;;;;0.00;0.00;;;19.80;99.90;;;;;;4939882;28;21121;-88
2022/09/14 09:09:35;;;;;;;0.00;0.00;;;19.80;99.90;;;;;;4929620;29;20536;-87
2022/09/14 09:12:05;;;;;;;0.00;0.00;;;19.70;99.90;;;;;;4930104;29;20468;-88
2022/09/14 09:14:35;;;;;;;0.00;0.00;;;19.70;99.90;;;;;;4947597;29;20588;-87
2022/09/14 09:17:10;;;;;;;0.00;0.00;;;19.70;99.90;;;;;;4948103;29;20656;-89
2022/09/14 09:19:51;;;;;;;0.00;0.00;;;19.60;99.90;;;;;;4947853;29;20807;-88
2022/09/14 09:22:23;;;;;;;0.00;0.00;;;19.50;99.90;;;;;;4936267;28;20501;-86
2022/09/14 09:24:53;;;;;;;0.00;0.00;;;19.40;99.90;;;;;;4936473;29;20467;-87
2022/09/14 09:27:26;;;;;;;0.00;0.00;;;19.40;99.90;;;;;;4938117;29;20461;-87
2022/09/14 09:29:54;;;;;;;0.00;0.00;;;19.40;99.90;;;;;;4963218;28;20453;-87
2022/09/14 09:32:24;;;;;;;0.00;0.00;;;19.50;99.90;;;;;;4951620;28;20469;-85
2022/09/14 09:34:58;;;;;;;0.00;0.00;;;19.60;99.90;;;;;;4932947;29;20433;-84
2022/09/14 09:37:26;;;;;;;0.00;0.00;;;19.70;99.90;;;;;;4932718;29;20441;-84
2022/09/14 09:39:54;;;;;;;0.00;0.00;;;19.80;99.90;;;;;;4944963;29;20548;-86
2022/09/14 09:42:25;;;;;;;0.00;0.00;;;19.80;99.90;;;;;;4949001;28;20653;-85
2022/09/14 09:45:02;;;;;;;0.00;0.00;;;19.80;99.90;;;;;;4938564;28;20458;-86
2022/09/14 09:47:34;;;;;;;0.00;0.00;;;19.70;99.90;;;;;;4942409;29;20489;-85
2022/09/14 09:50:16;;;;;;;0.00;0.00;;;19.70;99.90;;;;;;4950622;28;20453;-86
2022/09/14 09:52:50;;;;;;;0.00;0.00;;;19.80;99.90;;;;;;4955220;29;20448;-86
2022/09/14 09:55:30;;;;;;;0.00;0.00;;;20.00;99.90;;;;;;4956347;28;20736;-85
2022/09/14 09:58:26;;;;;;;0.00;0.00;;;20.00;99.90;;;;;;4950721;28;20845;-85
2022/09/14 10:01:06;;;;;;;0.00;0.00;;;20.10;99.90;;;;;;4953189;28;20560;-87
2022/09/14 10:03:40;;;;;;;0.00;0.00;;;20.10;99.90;;;;;;4955528;29;20507;-85
2022/09/14 10:06:17;;;;;;;0.00;0.00;;;20.20;99.90;;;;;;4954438;29;20468;-86
2022/09/14 10:08:47;;;;;;;0.00;0.00;;;20.20;99.90;;;;;;4952363;29;20476;-84
2022/09/14 10:11:33;;;;;;;0.00;0.00;;;20.40;99.90;;;;;;4952362;28;20499;-85
2022/09/14 10:14:01;;;;;;;0.00;0.00;;;20.60;99.90;;;;;;4951147;29;20648;-86
2022/09/14 10:16:36;;;;;;;0.00;0.00;;;20.80;99.90;;;;;;4956679;28;20452;-87
2022/09/14 10:19:14;;;;;;;0.00;0.00;;;20.70;99.90;;;;;;4952757;29;20436;-87
2022/09/14 10:22:27;;;;;;;0.00;0.00;;;20.60;99.90;;;;;;4953449;28;21020;-84
2022/09/14 10:24:58;;;;;;;0.00;0.00;;;20.40;99.90;;;;;;4951698;28;20456;-86
2022/09/14 10:27:39;;;;;;;0.00;0.00;;;20.20;99.90;;;;;;4952335;28;20441;-87
2022/09/14 10:30:13;;;;;;;0.00;0.00;;;20.00;99.90;;;;;;4958170;28;20479;-87
2022/09/14 10:32:45;;;;;;;0.00;0.00;;;20.00;99.90;;;;;;4968790;28;20425;-86
2022/09/14 10:35:16;;;;;;;0.00;0.00;;;19.90;99.90;;;;;;4951387;28;20459;-86
2022/09/14 10:38:22;;;;;;;0.00;0.00;;;19.90;99.90;;;;;;4927369;29;20545;-86
2022/09/14 10:40:58;;;;;;;0.00;0.00;;;19.80;99.90;;;;;;4924140;29;20687;-86
2022/09/14 10:43:38;;;;;;;0.00;0.00;;;19.60;99.90;;;;;;4934925;29;20495;-87
2022/09/14 10:46:13;;;;;;;0.00;0.00;;;19.50;99.90;;;;;;4937371;29;20446;-87
2022/09/14 10:49:02;;;;;;;0.00;0.00;;;19.50;99.90;;;;;;4933952;29;20448;-86
2022/09/14 10:51:48;;;;;;;0.00;0.00;;;19.50;99.90;;;;;;4929543;29;20795;-87
2022/09/14 10:54:34;;;;;;;0.00;0.00;;;19.40;99.90;;;;;;4928969;29;20481;-87
2022/09/14 10:57:11;;;;;;;0.00;0.00;;;19.40;99.90;;;;;;4932204;29;20468;-85
2022/09/14 10:59:48;;;;;;;0.00;0.00;;;19.40;99.90;;;;;;4951678;28;20456;-87
2022/09/14 11:02:35;;;;;;;0.00;0.00;;;19.50;99.90;;;;;;4951481;29;20452;-87
2022/09/14 11:05:12;;;;;;;0.00;0.00;;;19.70;99.90;;;;;;4943494;28;20968;-88
2022/09/14 11:08:00;;;;;;;0.00;0.00;;;19.80;99.90;;;;;;4958067;29;20429;-87
2022/09/14 11:10:35;;;;;;;0.00;0.00;;;19.90;99.90;;;;;;4951946;28;20818;-88
2022/09/14 11:13:26;;;;;;;0.00;0.00;;;20.00;99.90;;;;;;4948862;29;20436;-85
2022/09/14 11:16:04;;;;;;;0.00;0.00;;;20.10;99.90;;;;;;4947447;28;20524;-89
2022/09/14 11:18:43;;;;;;;0.00;0.00;;;20.10;99.90;;;;;;4946966;29;20793;-87
2022/09/14 11:21:20;;;;;;;0.00;0.00;;;20.20;99.90;;;;;;4939716;29;20507;-86
2022/09/14 11:23:53;;;;;;;0.00;0.00;;;20.30;99.90;;;;;;4938384;29;20481;-89
2022/09/14 11:26:30;;;;;;;0.00;0.00;;;20.30;99.90;;;;;;4937653;29;20468;-86
2022/09/14 11:29:08;;;;;;;0.00;0.00;;;20.40;99.90;;;;;;4936368;29;20450;-85
2022/09/14 11:31:46;;;;;;;0.00;0.00;;;20.50;99.90;;;;;;4947066;29;20462;-87
2022/09/14 11:34:42;;;;;;;0.00;0.00;;;20.60;99.90;;;;;;4940006;28;20484;-86
2022/09/14 11:37:13;;;;;;;0.00;0.00;;;20.70;99.90;;;;;;4940454;29;20487;-86
2022/09/14 11:39:46;;;;;;;0.00;0.00;;;20.60;99.90;;;;;;4939190;29;20642;-88
2022/09/14 11:42:20;;;;;;;0.00;0.00;;;20.50;99.90;;;;;;4940047;29;20854;-87
2022/09/14 11:44:54;;;;;;;0.00;0.00;;;20.40;99.90;;;;;;4938818;28;20495;-87
2022/09/14 11:47:23;;;;;;;0.00;0.00;;;20.40;99.90;;;;;;4948196;29;20535;-86
2022/09/14 11:49:58;;;;;;;0.00;0.00;;;20.40;99.90;;;;;;4961024;29;20465;-88
2022/09/14 11:52:28;;;;;;;0.00;0.00;;;20.50;99.90;;;;;;4955697;29;20490;-86
2022/09/14 11:54:58;;;;;;;0.00;0.00;;;20.60;99.90;;;;;;4957829;29;20678;-82
2022/09/14 11:57:30;;;;;;;0.00;0.00;;;20.60;99.90;;;;;;4954053;29;20642;-84
2022/09/14 12:00:41;;;;;;;0.00;0.00;;;20.60;99.90;;;;;;4955781;29;20448;-83
2022/09/14 12:03:16;;;;;;;0.00;0.00;;;20.50;99.90;;;;;;4946742;28;20493;-87
2022/09/14 12:05:48;;;;;;;0.00;0.00;;;20.50;99.90;;;;;;4935783;28;20449;-87
2022/09/14 12:08:39;;;;;;;0.00;0.00;;;20.40;99.90;;;;;;4930060;29;20453;-87
2022/09/14 12:11:31;;;;;;;0.00;0.00;;;20.40;99.90;;;;;;4929316;29;20807;-87
2022/09/14 12:14:31;;;;;;;0.00;0.00;;;20.40;99.90;;;;;;4932311;29;20552;-86
2022/09/14 12:17:05;;;;;;;0.00;0.00;;;20.40;99.90;;;;;;4949816;28;21101;-86
2022/09/14 12:19:57;;;;;;;0.00;0.00;;;20.40;99.90;;;;;;4955477;29;20441;-85
2022/09/14 12:22:32;;;;;;;0.00;0.00;;;20.50;99.90;;;;;;4951818;28;20551;-86
2022/09/14 12:25:15;;;;;;;0.00;0.00;;;20.50;99.90;;;;;;4948894;29;20490;-85
2022/09/14 12:27:52;;;;;;;0.00;0.00;;;20.40;99.90;;;;;;4952978;28;20468;-85
2022/09/14 12:31:09;;;;;;;0.00;0.00;;;20.40;99.90;;;;;;4967170;28;20491;-85
2022/09/14 12:34:15;;;;;;;0.00;0.00;;;20.50;99.90;;;;;;4948371;28;20485;-86
2022/09/14 12:37:06;;;;;;;0.00;0.00;;;20.60;99.90;;;;;;4932517;28;20626;-84
2022/09/14 12:39:59;;;;;;;0.00;0.00;;;20.70;99.90;;;;;;4932304;29;21094;-85
2022/09/14 12:42:31;;;;;;;0.00;0.00;;;20.70;99.90;;;;;;4930018;29;20453;-83
2022/09/14 12:45:37;;;;;;;0.00;0.00;;;20.80;99.90;;;;;;4932708;29;20736;-84
2022/09/14 12:48:08;;;;;;;0.00;0.00;;;20.80;99.90;;;;;;4928791;28;20468;-85
2022/09/14 12:50:40;;;;;;;0.00;0.00;;;20.60;99.90;;;;;;4931258;29;21110;-85
2022/09/14 12:53:21;;;;;;;0.00;0.00;;;20.40;99.90;;;;;;4931816;29;20465;-85
2022/09/14 12:56:00;;;;;;;0.00;0.00;;;20.20;99.90;;;;;;4932069;29;20477;-85
2022/09/14 12:59:00;;;;;;;0.00;0.00;;;19.90;99.90;;;;;;4932757;28;20467;-84
2022/09/14 13:01:43;;;;;;;0.00;0.00;;;19.70;99.90;;;;;;4945970;29;20460;-85
2022/09/14 13:04:21;;;;;;;0.00;0.00;;;19.50;99.90;;;;;;4948917;29;20482;-88
2022/09/14 13:06:51;;;;;;;0.00;0.00;;;19.40;99.90;;;;;;4950036;29;20689;-86
2022/09/14 13:09:21;;;;;;;0.00;0.00;;;19.30;99.90;;;;;;4948544;29;20932;-84
2022/09/14 13:11:54;;;;;;;0.00;0.00;;;19.30;99.90;;;;;;4949160;28;20510;-86
2022/09/14 13:14:24;;;;;;;0.00;0.00;;;19.50;99.90;;;;;;4946072;29;20778;-84
2022/09/14 13:16:54;;;;;;;0.00;0.00;;;19.50;99.90;;;;;;4948143;29;20668;-85
2022/09/14 13:19:25;;;;;;;0.00;0.00;;;19.70;99.90;;;;;;4947125;28;20456;-85
2022/09/14 13:21:55;;;;;;;0.00;0.00;;;19.90;99.90;;;;;;4944319;28;20505;-84
2022/09/14 13:24:28;;;;;;;0.00;0.00;;;20.10;99.90;;;;;;4947225;29;20484;-85
2022/09/14 13:26:58;;;;;;;0.00;0.00;;;20.20;99.90;;;;;;4947802;29;20451;-86